Time;durP1;ratioP1;P1;durP2;ratioP2;P2;SDS_P1;SDS_P2;PMS_P1;PMS_P2;Temp;Humidity;BMP_temperature;BMP_pressure;BME280_temperature;BME280_humidity;BME280_pressure;Samples;Min_cycle;Max_cycle;Signal;HPM_P1;HPM_P2
2022/09/09 00:01:25;;;;;;;10.95;5.57;;;;;;;22.52;49.60;99859.53;5071659;28;20441;-45
2022/09/09 00:03:59;;;;;;;6.78;5.75;;;;;;;22.55;49.67;99865.22;5070615;28;20027;-44
2022/09/09 00:06:46;;;;;;;8.05;5.65;;;;;;;22.42;49.90;99853.09;5070717;28;20024;-45
2022/09/09 00:09:12;;;;;;;7.68;5.97;;;;;;;22.30;50.10;99862.66;5070957;28;20103;-46
2022/09/09 00:11:47;;;;;;;7.38;5.57;;;;;;;22.12;50.41;99864.84;5071169;28;20020;-44
2022/09/09 00:14:37;;;;;;;8.57;5.80;;;;;;;21.98;50.51;99859.22;5071368;28;20052;-43
2022/09/09 00:17:12;;;;;;;6.60;5.57;;;;;;;22.05;50.92;99873.28;5071664;28;20032;-44
2022/09/09 00:19:40;;;;;;;8.18;6.18;;;;;;;22.05;50.95;99869.78;5071655;28;20098;-46
2022/09/09 00:22:17;;;;;;;8.88;5.80;;;;;;;22.05;51.21;99864.34;5058566;28;20560;-45
2022/09/09 00:24:53;;;;;;;9.02;5.95;;;;;;;21.99;51.43;99866.25;5051539;28;20028;-43
2022/09/09 00:27:41;;;;;;;11.90;6.00;;;;;;;21.81;52.08;99862.25;5051274;28;20056;-44
2022/09/09 00:30:20;;;;;;;10.45;6.05;;;;;;;21.71;52.62;99866.88;5051061;28;20412;-45
2022/09/09 00:32:47;;;;;;;7.43;6.72;;;;;;;21.83;52.48;99868.19;5052089;28;20311;-43
2022/09/09 00:35:24;;;;;;;8.75;6.88;;;;;;;21.85;52.18;99879.56;5052527;28;20451;-44
2022/09/09 00:37:53;;;;;;;9.73;7.20;;;;;;;21.57;52.59;99882.88;5052200;28;20028;-44
2022/09/09 00:40:32;;;;;;;10.18;6.60;;;;;;;21.68;52.61;99884.47;5052380;28;20067;-44
2022/09/09 00:43:32;;;;;;;9.93;6.53;;;;;;;21.71;53.13;99883.94;5052149;28;20090;-46
2022/09/09 00:46:23;;;;;;;10.00;6.78;;;;;;;21.87;52.36;99873.88;5052183;28;20198;-37
2022/09/09 00:48:57;;;;;;;9.30;6.30;;;;;;;21.83;52.46;99870.91;5059065;28;20024;-36
2022/09/09 00:51:25;;;;;;;10.70;7.00;;;;;;;21.78;52.40;99875.50;5071958;28;20059;-36
2022/09/09 00:54:10;;;;;;;10.85;6.88;;;;;;;21.87;52.63;99876.59;5072418;28;20384;-37
2022/09/09 00:56:53;;;;;;;11.88;6.88;;;;;;;21.76;52.67;99878.53;5072012;28;20112;-37
2022/09/09 00:59:40;;;;;;;8.77;6.60;;;;;;;21.84;52.46;99880.66;5071971;28;20024;-37
2022/09/09 01:02:27;;;;;;;10.88;6.75;;;;;;;21.80;52.46;99885.00;5071620;28;20024;-37
2022/09/09 01:04:54;;;;;;;8.57;6.75;;;;;;;21.64;53.07;99891.53;5072038;28;20025;-37
2022/09/09 01:07:20;;;;;;;8.07;6.57;;;;;;;21.69;52.67;99886.13;5072047;28;20035;-37
2022/09/09 01:10:00;;;;;;;11.35;7.00;;;;;;;21.63;53.12;99881.78;5071312;28;20112;-37
2022/09/09 01:12:41;;;;;;;12.48;7.55;;;;;;;21.56;53.38;99886.69;5071393;28;20489;-37
2022/09/09 01:15:19;;;;;;;8.88;7.40;;;;;;;21.48;53.59;99886.13;5071428;28;20177;-37
2022/09/09 01:18:04;;;;;;;8.63;7.60;;;;;;;21.25;54.33;99890.19;5071459;28;20044;-37
2022/09/09 01:20:57;;;;;;;9.32;7.97;;;;;;;21.23;54.82;99886.13;5071163;28;20103;-37
2022/09/09 01:23:42;;;;;;;10.90;8.00;;;;;;;21.22;54.66;99885.28;5051368;28;20074;-37
2022/09/09 01:26:14;;;;;;;10.07;7.65;;;;;;;21.18;54.61;99884.22;5051321;28;20028;-37
2022/09/09 01:28:42;;;;;;;12.75;8.25;;;;;;;21.13;54.55;99886.91;5050931;28;20037;-37
2022/09/09 01:31:11;;;;;;;13.02;7.88;;;;;;;21.12;54.63;99882.59;5051297;28;20021;-37
2022/09/09 01:33:36;;;;;;;11.90;7.37;;;;;;;20.89;55.02;99873.91;5051311;28;20052;-37
2022/09/09 01:36:05;;;;;;;10.98;7.40;;;;;;;21.00;54.76;99876.63;5051538;28;20052;-37
2022/09/09 01:38:32;;;;;;;10.05;7.22;;;;;;;21.20;54.19;99886.66;5051771;28;20108;-46
2022/09/09 01:40:58;;;;;;;10.90;7.63;;;;;;;21.27;54.29;99884.50;5050758;28;20024;-47
2022/09/09 01:43:25;;;;;;;9.07;7.10;;;;;;;21.34;53.87;99871.47;5050989;28;20021;-44
2022/09/09 01:45:53;;;;;;;12.00;7.38;;;;;;;21.33;53.89;99878.00;5049577;28;20104;-43
2022/09/09 01:48:22;;;;;;;10.57;6.55;;;;;;;21.43;53.76;99877.19;5054179;28;20046;-43
2022/09/09 01:50:48;;;;;;;13.48;7.65;;;;;;;21.36;54.26;99871.22;5070453;28;20044;-45
2022/09/09 01:53:16;;;;;;;9.93;8.15;;;;;;;21.39;54.00;99866.06;5070988;28;20389;-45
2022/09/09 01:55:52;;;;;;;9.63;7.60;;;;;;;21.43;53.87;99874.47;5070941;28;20020;-43
2022/09/09 01:58:52;;;;;;;10.88;7.63;;;;;;;21.39;54.13;99870.69;5070995;28;20024;-43
2022/09/09 02:01:18;;;;;;;11.45;8.00;;;;;;;21.28;53.94;99876.13;5061756;28;20573;-44
2022/09/09 02:03:51;;;;;;;10.40;7.72;;;;;;;21.34;54.07;99879.59;5070722;28;20028;-43
2022/09/09 02:06:40;;;;;;;14.88;8.13;;;;;;;21.33;54.44;99878.00;5070841;28;20032;-46
2022/09/09 02:09:07;;;;;;;13.23;8.10;;;;;;;21.15;54.87;99879.38;5070276;28;20093;-44
2022/09/09 02:11:34;;;;;;;11.65;8.82;;;;;;;21.22;54.83;99873.66;5070403;28;20059;-45
2022/09/09 02:14:06;;;;;;;11.07;8.70;;;;;;;21.15;54.70;99878.53;5070765;28;20043;-45
2022/09/09 02:16:42;;;;;;;13.80;9.02;;;;;;;21.13;55.23;99878.00;5071278;28;20028;-44
2022/09/09 02:19:25;;;;;;;18.23;8.80;;;;;;;21.13;55.68;99878.78;5070446;28;20070;-45
2022/09/09 02:21:53;;;;;;;11.60;9.13;;;;;;;21.12;55.48;99873.69;5059766;28;20028;-44
2022/09/09 02:24:19;;;;;;;15.05;10.02;;;;;;;21.03;55.72;99870.69;5050024;28;20445;-44
2022/09/09 02:26:47;;;;;;;14.60;10.35;;;;;;;20.87;56.62;99876.09;5050390;28;20029;-46
2022/09/09 02:29:18;;;;;;;15.53;10.40;;;;;;;20.91;56.27;99867.44;5050361;28;20535;-43
2022/09/09 02:31:46;;;;;;;14.73;10.25;;;;;;;20.68;56.97;99867.66;5050402;28;20013;-46
2022/09/09 02:34:13;;;;;;;14.27;10.50;;;;;;;20.63;57.00;99872.25;5049676;28;20025;-46
2022/09/09 02:36:43;;;;;;;14.73;10.43;;;;;;;20.67;56.79;99862.53;5050427;28;20023;-45
2022/09/09 02:39:10;;;;;;;16.70;10.43;;;;;;;20.65;56.77;99870.09;5050343;28;20071;-45
2022/09/09 02:41:38;;;;;;;15.80;9.95;;;;;;;20.64;56.80;99871.19;5050317;28;20389;-47
2022/09/09 02:44:12;;;;;;;16.43;11.10;;;;;;;20.77;57.23;99872.53;5050045;28;20377;-47
2022/09/09 02:46:55;;;;;;;15.07;10.65;;;;;;;20.87;56.34;99873.38;5050304;28;20429;-45
2022/09/09 02:49:33;;;;;;;13.70;9.93;;;;;;;20.84;57.07;99873.09;5061592;28;20048;-47
2022/09/09 02:52:07;;;;;;;11.43;9.93;;;;;;;20.80;57.22;99878.22;5070382;28;20512;-47
2022/09/09 02:54:36;;;;;;;15.85;9.90;;;;;;;20.79;56.77;99875.78;5069859;28;20100;-46
2022/09/09 02:57:21;;;;;;;12.60;10.45;;;;;;;20.81;57.09;99874.47;5070051;28;20025;-45
2022/09/09 02:59:46;;;;;;;15.80;9.90;;;;;;;20.94;56.56;99880.41;5069742;28;20381;-46
2022/09/09 03:02:12;;;;;;;13.75;9.93;;;;;;;20.95;56.92;99884.75;5069848;28;20032;-44
2022/09/09 03:04:39;;;;;;;18.08;10.63;;;;;;;20.95;56.32;99888.25;5069736;28;20057;-44
2022/09/09 03:07:05;;;;;;;14.52;9.70;;;;;;;20.93;55.79;99881.50;5071424;28;20105;-48
2022/09/09 03:09:31;;;;;;;18.48;10.48;;;;;;;20.88;56.41;99879.59;5073819;28;20460;-46
2022/09/09 03:11:56;;;;;;;17.15;11.07;;;;;;;20.75;56.76;99863.88;5074515;28;20024;-45
2022/09/09 03:14:24;;;;;;;19.17;10.60;;;;;;;20.81;56.71;99871.75;5073977;28;20461;-45
2022/09/09 03:16:51;;;;;;;17.63;10.90;;;;;;;20.79;56.61;99878.50;5073611;28;20028;-45
2022/09/09 03:19:18;;;;;;;13.95;9.40;;;;;;;20.62;56.42;99882.25;5073452;28;20044;-45
2022/09/09 03:21:45;;;;;;;16.08;9.73;;;;;;;20.72;56.67;99880.66;5063849;28;20025;-43
2022/09/09 03:24:10;;;;;;;19.17;11.07;;;;;;;20.78;56.78;99891.22;5053449;28;20082;-44
2022/09/09 03:26:37;;;;;;;15.15;10.30;;;;;;;20.87;56.47;99895.00;5053606;28;20025;-45
2022/09/09 03:29:06;;;;;;;22.15;11.00;;;;;;;20.85;56.65;99896.38;5053872;28;20028;-43
2022/09/09 03:31:32;;;;;;;15.60;10.18;;;;;;;20.94;56.33;99894.75;5053524;28;20032;-43
2022/09/09 03:33:58;;;;;;;14.45;9.50;;;;;;;20.99;55.82;99902.06;5053738;28;20106;-43
2022/09/09 03:36:28;;;;;;;16.77;9.75;;;;;;;20.93;55.61;99898.53;5053780;28;20143;-43
2022/09/09 03:38:54;;;;;;;19.25;10.75;;;;;;;20.86;55.51;99903.38;5053763;28;20032;-46
2022/09/09 03:41:23;;;;;;;17.75;12.50;;;;;;;20.77;56.24;99905.00;5053708;28;20477;-44
2022/09/09 03:43:53;;;;;;;30.13;18.25;;;;;;;20.80;56.45;99915.28;5053627;28;20035;-45
2022/09/09 03:46:20;;;;;;;23.30;15.63;;;;;;;20.87;56.55;99911.25;5053624;28;20060;-42
2022/09/09 03:48:46;;;;;;;21.45;12.10;;;;;;;20.78;56.81;99901.22;5060190;28;20069;-44
2022/09/09 03:51:11;;;;;;;16.38;9.38;;;;;;;20.88;55.49;99906.63;5072926;28;20138;-44
2022/09/09 03:53:37;;;;;;;17.33;9.20;;;;;;;20.89;55.14;99903.66;5072894;28;20051;-43
2022/09/09 03:56:06;;;;;;;15.48;9.45;;;;;;;20.91;54.99;99906.13;5073231;28;20020;-46
2022/09/09 03:58:33;;;;;;;15.10;8.70;;;;;;;20.95;55.33;99912.59;5072838;28;20099;-44
2022/09/09 04:01:00;;;;;;;12.25;7.68;;;;;;;20.82;54.59;99905.00;5073093;28;20058;-43
2022/09/09 04:03:27;;;;;;;15.52;7.38;;;;;;;20.70;54.17;99900.66;5073007;28;20106;-44
2022/09/09 04:05:53;;;;;;;15.93;7.30;;;;;;;20.40;54.52;99900.53;5072973;28;20079;-46
2022/09/09 04:08:20;;;;;;;11.32;7.40;;;;;;;20.00;55.95;99899.28;5072537;28;20032;-45
2022/09/09 04:10:47;;;;;;;13.15;7.38;;;;;;;20.03;56.08;99896.03;5072252;28;20047;-43
2022/09/09 04:13:15;;;;;;;13.43;7.00;;;;;;;19.89;56.93;99904.59;5073244;28;20125;-43
2022/09/09 04:15:42;;;;;;;11.27;7.20;;;;;;;20.36;54.72;99902.16;5072475;28;20035;-44
2022/09/09 04:18:08;;;;;;;15.13;6.40;;;;;;;20.72;53.63;99907.69;5070785;28;20056;-43
2022/09/09 04:20:33;;;;;;;13.68;6.75;;;;;;;20.50;53.31;99906.81;5063530;28;20060;-45
2022/09/09 04:22:59;;;;;;;13.57;7.43;;;;;;;20.48;54.50;99903.53;5051836;28;20118;-42
2022/09/09 04:25:25;;;;;;;12.95;6.53;;;;;;;20.60;53.75;99897.09;5051754;28;20104;-47
2022/09/09 04:27:58;;;;;;;12.98;6.25;;;;;;;20.85;52.86;99888.25;5051706;28;20032;-44
2022/09/09 04:30:24;;;;;;;10.82;6.53;;;;;;;20.87;53.88;99886.91;5051562;28;20024;-43
2022/09/09 04:32:50;;;;;;;10.35;6.07;;;;;;;21.22;52.09;99898.81;5051390;28;20036;-44
2022/09/09 04:35:15;;;;;;;35.22;21.65;;;;;;;21.26;51.99;99896.41;5051370;28;20025;-42
2022/09/09 04:37:41;;;;;;;45.20;27.65;;;;;;;21.20;52.35;99903.69;5051436;28;20071;-43
2022/09/09 04:40:09;;;;;;;21.08;6.88;;;;;;;21.35;51.90;99902.91;5051176;28;20036;-42
2022/09/09 04:42:39;;;;;;;12.47;6.20;;;;;;;21.89;51.08;99906.09;5051383;28;20036;-43
2022/09/09 04:45:04;;;;;;;;;;;;;;;22.46;49.50;99896.72;5052442;28;20025;-50
2022/09/09 04:47:30;;;;;;;13.00;6.10;;;;;;;22.43;49.38;99913.56;5051172;28;19908;-44
2022/09/09 04:49:56;;;;;;;11.65;6.00;;;;;;;22.61;49.05;99914.81;5067575;28;20060;-43
2022/09/09 04:52:22;;;;;;;12.25;6.22;;;;;;;22.90;47.99;99920.34;5071257;28;20024;-42
2022/09/09 04:54:48;;;;;;;82.72;53.00;;;;;;;23.23;47.07;99917.97;5053348;28;20461;-43
2022/09/09 04:57:13;;;;;;;22.98;14.25;;;;;;;23.17;47.52;99917.22;5050739;28;20021;-43
2022/09/09 04:59:39;;;;;;;15.45;6.75;;;;;;;23.52;46.95;99925.34;5050749;28;20021;-44
2022/09/09 05:02:05;;;;;;;15.10;7.00;;;;;;;23.61;47.34;99929.88;5050502;28;20041;-43
2022/09/09 05:04:30;;;;;;;10.10;8.25;;;;;;;23.95;47.37;99933.63;5050373;28;20104;-43
2022/09/09 05:06:56;;;;;;;14.43;7.68;;;;;;;24.45;46.34;99928.72;5051002;28;20457;-43
2022/09/09 05:09:21;;;;;;;11.60;7.70;;;;;;;24.73;46.00;99926.22;5050350;28;20033;-45
2022/09/09 05:11:47;;;;;;;12.57;7.40;;;;;;;24.75;46.01;99930.28;5050536;28;20554;-43
2022/09/09 05:14:12;;;;;;;9.85;7.15;;;;;;;25.16;45.31;99931.56;5050214;28;20048;-45
2022/09/09 05:16:37;;;;;;;11.82;7.45;;;;;;;25.37;44.98;99929.38;5050224;28;20481;-44
2022/09/09 05:19:03;;;;;;;11.45;7.43;;;;;;;25.65;43.80;99927.53;5048341;28;20496;-44
2022/09/09 05:21:30;;;;;;;9.57;7.47;;;;;;;24.73;45.73;99915.31;5049611;28;20170;-44
2022/09/09 05:23:56;;;;;;;12.90;8.07;;;;;;;24.24;47.23;99913.75;5049883;28;20040;-43
2022/09/09 05:26:22;;;;;;;11.90;7.20;;;;;;;24.42;46.65;99914.91;5050045;28;20353;-44
2022/09/09 05:28:48;;;;;;;12.10;6.65;;;;;;;24.90;44.92;99912.09;5050558;28;20020;-45
2022/09/09 05:31:16;;;;;;;13.65;6.93;;;;;;;25.25;43.82;99918.94;5049619;28;20021;-47
2022/09/09 05:33:43;;;;;;;12.02;6.88;;;;;;;25.13;43.73;99911.19;5050106;28;20021;-44
2022/09/09 05:36:13;;;;;;;10.30;6.35;;;;;;;25.33;43.54;99917.44;5049886;28;20481;-43
2022/09/09 05:38:39;;;;;;;12.02;5.72;;;;;;;26.26;41.33;99927.50;5050413;28;20025;-44
2022/09/09 05:41:05;;;;;;;9.55;5.63;;;;;;;25.81;41.64;99922.59;5050113;28;20512;-45
2022/09/09 05:43:32;;;;;;;13.00;6.50;;;;;;;25.71;42.28;99923.59;5049941;28;20020;-43
2022/09/09 05:46:05;;;;;;;12.68;6.38;;;;;;;25.71;42.36;99926.31;5049548;28;20045;-45
2022/09/09 05:48:32;;;;;;;8.27;6.43;;;;;;;25.75;42.21;99927.34;5049738;28;20031;-43
2022/09/09 05:50:59;;;;;;;14.50;6.03;;;;;;;26.52;40.86;99925.88;5049662;28;20034;-45
2022/09/09 05:53:25;;;;;;;9.23;6.15;;;;;;;26.50;40.65;99921.81;5049594;28;20017;-44
2022/09/09 05:55:59;;;;;;;8.00;6.15;;;;;;;26.31;40.88;99921.94;5049159;28;20100;-44
2022/09/09 05:58:24;;;;;;;10.95;5.82;;;;;;;26.02;41.30;99923.06;5048696;28;20025;-44
2022/09/09 06:00:50;;;;;;;11.60;6.30;;;;;;;26.14;41.02;99922.53;5033475;28;20021;-45
2022/09/09 06:03:16;;;;;;;9.45;5.65;;;;;;;27.21;39.14;99922.16;5032147;28;20742;-45
2022/09/09 06:05:42;;;;;;;16.52;5.88;;;;;;;26.83;39.76;99917.03;5029955;28;20049;-46
2022/09/09 06:08:07;;;;;;;13.18;5.78;;;;;;;26.48;40.32;99913.13;5046985;28;20030;-44
2022/09/09 06:10:33;;;;;;;12.07;6.25;;;;;;;26.76;40.02;99905.72;5028911;28;20025;-43
2022/09/09 06:12:59;;;;;;;9.70;5.68;;;;;;;26.98;39.03;99893.22;5029152;28;20082;-44
2022/09/09 06:15:25;;;;;;;10.50;5.80;;;;;;;27.59;38.11;99890.91;5031617;28;20129;-45
2022/09/09 06:17:56;;;;;;;6.85;4.75;;;;;;;27.21;38.22;99897.56;5039604;28;20059;-46
2022/09/09 06:20:22;;;;;;;10.48;5.10;;;;;;;27.07;38.27;99897.63;5044872;28;20143;-45
2022/09/09 06:22:48;;;;;;;9.93;5.10;;;;;;;26.92;38.68;99900.72;5050523;28;20044;-46
2022/09/09 06:25:14;;;;;;;10.38;4.95;;;;;;;27.34;37.81;99897.81;5048727;28;20409;-44
2022/09/09 06:27:40;;;;;;;10.98;4.38;;;;;;;28.46;36.09;99892.03;5048040;28;20029;-45
2022/09/09 06:30:07;;;;;;;9.55;5.03;;;;;;;28.13;36.30;99897.09;5048689;28;20029;-46
2022/09/09 06:32:34;;;;;;;14.35;5.30;;;;;;;27.92;36.73;99882.41;5048297;28;20021;-44
2022/09/09 06:35:01;;;;;;;11.55;5.50;;;;;;;27.86;37.11;99903.59;5048468;28;20021;-44
2022/09/09 06:37:27;;;;;;;8.93;4.82;;;;;;;27.90;37.14;99910.06;5049131;28;20029;-44
2022/09/09 06:39:54;;;;;;;7.85;4.95;;;;;;;29.04;35.22;99911.91;5049091;28;20021;-46
2022/09/09 06:42:19;;;;;;;6.63;4.68;;;;;;;28.59;35.80;99909.47;5048609;28;20021;-46
2022/09/09 06:44:45;;;;;;;8.60;4.93;;;;;;;28.02;36.67;99923.94;5049163;28;20028;-46
2022/09/09 06:47:10;;;;;;;8.70;5.03;;;;;;;28.15;36.48;99910.47;5049517;28;20428;-44
2022/09/09 06:49:36;;;;;;;9.20;5.00;;;;;;;28.21;36.44;99915.47;5048430;28;20152;-43
2022/09/09 06:52:01;;;;;;;12.45;5.10;;;;;;;28.17;36.37;99909.03;5049322;28;20017;-44
2022/09/09 06:54:27;;;;;;;10.38;5.07;;;;;;;28.94;35.12;99916.88;5048882;28;20029;-45
2022/09/09 06:56:53;;;;;;;8.10;4.75;;;;;;;28.63;35.64;99918.63;5048848;28;20098;-45
2022/09/09 06:59:21;;;;;;;10.65;6.75;;;;;;;28.36;35.96;99907.94;5048679;28;20098;-45
2022/09/09 07:01:47;;;;;;;11.45;6.03;;;;;;;28.59;36.22;99908.66;5046796;28;20111;-43
2022/09/09 07:04:13;;;;;;;11.65;4.72;;;;;;;28.85;35.32;99906.75;5048905;28;20100;-49
2022/09/09 07:06:44;;;;;;;6.85;4.32;;;;;;;29.03;35.30;99914.94;5048805;28;20017;-45
2022/09/09 07:09:11;;;;;;;10.75;6.00;;;;;;;29.07;35.26;99920.59;5048573;28;20021;-44
2022/09/09 07:11:41;;;;;;;11.60;6.88;;;;;;;29.28;34.86;99918.03;5048870;28;20049;-44
2022/09/09 07:14:07;;;;;;;13.10;6.30;;;;;;;29.53;34.80;99902.66;5049651;28;20096;-44
2022/09/09 07:16:33;;;;;;;11.30;5.60;;;;;;;29.49;34.20;99907.97;5049279;28;20025;-45
2022/09/09 07:18:58;;;;;;;8.32;5.40;;;;;;;29.12;35.50;99907.53;5048817;28;20135;-45
2022/09/09 07:21:28;;;;;;;21.80;7.50;;;;;;;29.10;35.45;99912.53;5048656;28;20249;-47
2022/09/09 07:23:54;;;;;;;22.63;5.40;;;;;;;29.16;34.81;99903.03;5048895;28;20025;-44
2022/09/09 07:26:22;;;;;;;7.47;5.10;;;;;;;29.42;34.70;99908.50;5048808;28;20451;-44
2022/09/09 07:28:49;;;;;;;11.73;6.78;;;;;;;29.29;35.15;99903.22;5048822;28;20032;-44
2022/09/09 07:31:30;;;;;;;12.57;6.53;;;;;;;29.50;35.02;99914.28;5048631;28;20056;-45
2022/09/09 07:33:56;;;;;;;10.10;6.22;;;;;;;29.39;35.01;99917.34;5048926;28;20035;-44
2022/09/09 07:36:30;;;;;;;9.60;6.30;;;;;;;29.72;34.48;99907.75;5048910;28;20016;-48
2022/09/09 07:38:59;;;;;;;14.40;9.70;;;;;;;29.94;34.11;99906.75;5049044;28;20025;-42
2022/09/09 07:41:27;;;;;;;9.80;7.07;;;;;;;29.94;34.34;99907.53;5048335;28;20378;-46
2022/09/09 07:43:56;;;;;;;9.65;5.68;;;;;;;30.00;33.84;99910.91;5048624;28;20061;-42
2022/09/09 07:46:23;;;;;;;14.27;8.18;;;;;;;29.94;33.37;99904.00;5048533;28;20025;-46
2022/09/09 07:48:56;;;;;;;10.20;6.20;;;;;;;30.07;33.64;99911.19;5048301;28;20059;-44
2022/09/09 07:51:27;;;;;;;5.80;4.68;;;;;;;30.24;33.07;99906.75;5048464;28;20024;-44
2022/09/09 07:53:58;;;;;;;8.43;4.50;;;;;;;30.50;32.44;99896.44;5050501;28;20043;-44
2022/09/09 07:56:25;;;;;;;8.05;4.60;;;;;;;30.62;32.50;99897.66;5052678;28;20039;-44
2022/09/09 07:58:53;;;;;;;9.38;4.95;;;;;;;30.57;32.50;99904.13;5053476;28;20410;-44
2022/09/09 08:01:20;;;;;;;10.77;4.57;;;;;;;30.93;31.97;99892.56;5053403;28;20044;-43
2022/09/09 08:03:54;;;;;;;9.02;4.47;;;;;;;31.44;30.80;99892.41;5053140;28;20016;-47
2022/09/09 08:06:20;;;;;;;10.52;4.63;;;;;;;30.97;31.79;99895.44;5053540;28;20575;-45
2022/09/09 08:08:50;;;;;;;10.02;4.70;;;;;;;30.83;32.29;99886.66;5052508;28;20037;-47
2022/09/09 08:11:16;;;;;;;10.25;6.13;;;;;;;30.71;32.18;99879.97;5052874;28;20083;-45
2022/09/09 08:13:43;;;;;;;9.40;5.53;;;;;;;30.32;32.76;99884.75;5051439;28;20051;-45
2022/09/09 08:16:11;;;;;;;7.60;5.20;;;;;;;30.53;32.26;99882.03;5053385;28;20040;-43
2022/09/09 08:18:37;;;;;;;9.02;5.25;;;;;;;30.25;32.73;99884.44;5052479;28;20071;-45
2022/09/09 08:21:17;;;;;;;10.15;6.10;;;;;;;30.37;32.12;99881.84;5051461;28;20493;-44
2022/09/09 08:23:45;;;;;;;9.82;6.93;;;;;;;30.20;32.46;99879.16;5052983;28;20128;-44
2022/09/09 08:26:14;;;;;;;7.93;5.63;;;;;;;30.34;32.75;99882.50;5052604;28;20369;-44
2022/09/09 08:28:41;;;;;;;7.40;4.93;;;;;;;29.94;33.36;99879.31;5052973;28;20028;-45
2022/09/09 08:31:13;;;;;;;11.13;4.55;;;;;;;30.31;33.37;99869.41;5053009;28;20484;-44
2022/09/09 08:33:39;;;;;;;7.00;4.13;;;;;;;30.52;32.24;99866.72;5052960;28;20410;-45
2022/09/09 08:36:06;;;;;;;6.85;4.78;;;;;;;30.77;31.96;99862.16;5052342;28;20083;-44
2022/09/09 08:38:32;;;;;;;8.10;4.57;;;;;;;30.68;32.35;99863.38;5052970;28;20025;-44
2022/09/09 08:41:21;;;;;;;6.30;4.60;;;;;;;30.65;32.33;99859.31;5052351;28;20028;-44
2022/09/09 08:43:48;;;;;;;11.38;4.72;;;;;;;30.74;32.89;99851.81;5031820;28;20037;-44
2022/09/09 08:46:33;;;;;;;6.20;4.40;;;;;;;31.00;32.24;99864.56;5051390;28;20455;-44
2022/09/09 08:49:17;;;;;;;7.70;4.80;;;;;;;31.26;31.82;99861.53;5061616;28;20164;-44
2022/09/09 08:51:43;;;;;;;9.30;4.30;;;;;;;31.46;31.40;99864.56;5072656;28;20024;-44
2022/09/09 08:54:09;;;;;;;6.95;4.53;;;;;;;31.34;31.99;99859.84;5072383;28;20400;-46
2022/09/09 08:56:35;;;;;;;6.93;4.60;;;;;;;31.03;32.10;99855.63;5071844;28;20024;-44
2022/09/09 08:59:05;;;;;;;8.65;4.80;;;;;;;31.03;31.62;99858.38;5071744;28;20553;-44
2022/09/09 09:02:01;;;;;;;11.38;4.75;;;;;;;30.52;32.67;99853.00;5071869;28;20024;-43
2022/09/09 09:04:52;;;;;;;8.43;4.78;;;;;;;30.97;32.13;99857.00;5071005;28;20602;-44
2022/09/09 09:07:48;;;;;;;5.85;4.78;;;;;;;31.14;32.12;99845.03;5071884;28;20035;-45
2022/09/09 09:10:17;;;;;;;9.65;4.75;;;;;;;31.15;32.13;99844.69;5071491;28;20029;-45
2022/09/09 09:12:47;;;;;;;8.10;4.70;;;;;;;31.15;31.60;99850.19;5071873;28;20063;-47
2022/09/09 09:15:24;;;;;;;8.82;4.90;;;;;;;31.32;31.29;99842.88;5071652;28;20032;-45
2022/09/09 09:17:50;;;;;;;9.13;4.70;;;;;;;31.14;32.09;99836.78;5071171;28;20123;-48
2022/09/09 09:20:22;;;;;;;9.20;5.05;;;;;;;31.17;31.25;99834.16;5071355;28;20187;-48
2022/09/09 09:22:55;;;;;;;10.98;4.78;;;;;;;30.90;31.77;99835.56;5053212;28;20021;-45
2022/09/09 09:25:31;;;;;;;8.85;4.53;;;;;;;31.01;31.91;99827.69;5050784;28;20082;-47
2022/09/09 09:28:11;;;;;;;6.93;4.70;;;;;;;30.92;32.55;99814.06;5051184;28;20090;-46
2022/09/09 09:30:42;;;;;;;7.68;4.90;;;;;;;30.58;32.49;99812.41;5051106;28;20060;-45
2022/09/09 09:33:50;;;;;;;15.18;4.95;;;;;;;30.57;32.63;99802.56;5051427;28;20017;-45
2022/09/09 09:36:16;;;;;;;6.32;5.00;;;;;;;30.70;32.92;99809.69;5050836;28;20017;-45
2022/09/09 09:39:00;;;;;;;7.80;4.93;;;;;;;30.17;33.25;99806.53;5050704;28;20066;-45
2022/09/09 09:41:43;;;;;;;5.05;4.45;;;;;;;30.54;32.97;99804.03;5050541;28;20400;-44
2022/09/09 09:44:29;;;;;;;6.05;5.07;;;;;;;30.83;32.49;99790.53;5051521;28;20033;-45
2022/09/09 09:47:27;;;;;;;7.10;4.82;;;;;;;30.97;32.86;99793.81;5051155;28;20020;-45
2022/09/09 09:49:53;;;;;;;8.93;4.60;;;;;;;31.13;33.04;99797.50;5043833;28;20051;-45
2022/09/09 09:52:23;;;;;;;9.02;4.93;;;;;;;30.89;33.39;99783.69;5070512;28;20421;-43
2022/09/09 09:54:51;;;;;;;8.77;4.88;;;;;;;31.18;32.52;99783.53;5069842;28;20145;-43
2022/09/09 09:57:17;;;;;;;6.75;5.10;;;;;;;30.84;32.83;99779.19;5070816;28;20107;-44
2022/09/09 09:59:43;;;;;;;10.13;5.20;;;;;;;31.01;32.66;99771.94;5070735;28;20025;-44
2022/09/09 10:02:18;;;;;;;6.22;5.13;;;;;;;31.09;32.23;99785.59;5070108;28;20036;-48
2022/09/09 10:04:47;;;;;;;5.97;4.80;;;;;;;31.24;32.25;99775.88;5070630;28;20042;-47
2022/09/09 10:07:19;;;;;;;7.53;5.57;;;;;;;31.30;32.26;99759.97;5071230;28;20025;-47
2022/09/09 10:09:45;;;;;;;7.95;5.60;;;;;;;30.82;33.14;99762.25;5070839;28;20031;-44
2022/09/09 10:12:38;;;;;;;6.35;5.25;;;;;;;30.49;33.34;99762.25;5070604;28;20020;-44
2022/09/09 10:15:15;;;;;;;10.43;5.65;;;;;;;30.08;35.07;99759.16;5071108;28;20035;-44
2022/09/09 10:18:01;;;;;;;10.00;5.60;;;;;;;30.34;34.69;99760.94;5030098;28;20053;-45
2022/09/09 10:20:51;;;;;;;8.05;5.40;;;;;;;30.45;34.37;99755.84;5036747;28;20040;-43
2022/09/09 10:23:38;;;;;;;9.60;5.93;;;;;;;30.37;34.64;99763.00;5030960;28;20025;-37
2022/09/09 10:26:16;;;;;;;8.80;5.85;;;;;;;30.45;34.33;99755.84;5030940;28;20026;-38
2022/09/09 10:29:12;;;;;;;8.52;6.10;;;;;;;30.33;34.30;99757.41;5030607;28;20451;-38
2022/09/09 10:31:57;;;;;;;5.95;5.28;;;;;;;30.42;34.71;99773.78;5030772;28;20152;-44
2022/09/09 10:34:56;;;;;;;8.93;6.18;;;;;;;30.42;34.56;99775.72;5029512;28;20692;-44
2022/09/09 10:38:00;;;;;;;7.25;5.72;;;;;;;30.79;34.49;99749.22;5030783;28;20036;-47
2022/09/09 10:40:34;;;;;;;11.57;6.15;;;;;;;31.22;33.59;99744.38;5022710;28;20037;-45
2022/09/09 10:43:26;;;;;;;8.65;5.70;;;;;;;31.06;34.17;99747.81;5031009;28;20034;-43
2022/09/09 10:45:57;;;;;;;9.02;5.88;;;;;;;30.88;34.17;99754.59;5030436;28;20025;-43
2022/09/09 10:48:41;;;;;;;8.98;5.63;;;;;;;30.57;34.95;99753.13;5034519;28;20104;-45
2022/09/09 10:51:15;;;;;;;10.77;5.60;;;;;;;30.47;34.77;99742.59;5050517;28;20028;-45
2022/09/09 10:54:17;;;;;;;10.02;5.18;;;;;;;30.88;34.63;99740.88;5050469;28;20434;-48
2022/09/09 10:56:48;;;;;;;6.57;5.25;;;;;;;31.01;33.94;99739.78;5031346;28;20135;-45
2022/09/09 10:59:22;;;;;;;8.00;4.90;;;;;;;31.02;33.55;99735.09;5050823;28;20028;-44
2022/09/09 11:01:57;;;;;;;5.53;4.97;;;;;;;31.05;33.68;99724.22;5049735;28;20482;-45
2022/09/09 11:04:27;;;;;;;6.15;4.78;;;;;;;31.16;33.76;99719.88;5047550;28;20033;-44
2022/09/09 11:06:55;;;;;;;5.97;4.90;;;;;;;31.20;33.31;99735.69;5049160;28;20036;-48
2022/09/09 11:09:32;;;;;;;6.63;4.70;;;;;;;30.52;34.17;99729.44;5049421;28;20017;-45
2022/09/09 11:12:02;;;;;;;6.07;4.90;;;;;;;30.19;34.77;99715.66;5047417;28;20052;-45
2022/09/09 11:14:42;;;;;;;6.55;4.80;;;;;;;30.60;34.88;99714.81;5049674;28;20481;-45
2022/09/09 11:17:36;;;;;;;9.07;4.90;;;;;;;30.85;34.45;99709.41;5047803;28;20025;-45
2022/09/09 11:20:02;;;;;;;11.70;5.20;;;;;;;31.20;34.73;99713.69;5047491;28;20037;-44
2022/09/09 11:22:44;;;;;;;7.70;4.90;;;;;;;31.19;33.54;99718.41;5049232;28;20041;-47
2022/09/09 11:25:21;;;;;;;7.00;4.80;;;;;;;31.40;33.22;99709.22;5048401;28;20143;-44
2022/09/09 11:28:20;;;;;;;5.55;4.53;;;;;;;31.38;33.37;99701.34;5048530;28;20481;-43
2022/09/09 11:30:52;;;;;;;11.27;7.45;;;;;;;31.72;32.88;99688.25;5051507;28;20024;-44
2022/09/09 11:33:49;;;;;;;7.50;4.50;;;;;;;31.81;33.07;99686.16;5053306;28;20126;-44
2022/09/09 11:36:38;;;;;;;8.10;4.55;;;;;;;32.30;32.12;99685.22;5052648;28;20060;-45
2022/09/09 11:39:21;;;;;;;6.88;4.30;;;;;;;32.09;32.14;99683.47;5051018;28;20021;-44
2022/09/09 11:41:47;;;;;;;8.18;4.55;;;;;;;32.23;32.57;99676.78;5051839;28;20064;-46
2022/09/09 11:44:20;;;;;;;6.95;4.15;;;;;;;32.10;32.38;99684.28;5053431;28;20044;-43
2022/09/09 11:46:51;;;;;;;10.10;4.20;;;;;;;32.26;32.15;99684.34;5050413;28;20099;-44
2022/09/09 11:49:42;;;;;;;6.50;4.20;;;;;;;32.46;31.73;99677.00;5052503;28;20021;-42
2022/09/09 11:52:20;;;;;;;6.18;4.05;;;;;;;32.40;31.78;99681.97;5053470;28;20036;-44